createdAt,value
2023-04-15T00:01:37.764Z,52.12
2023-04-15T00:06:43.352Z,50.28
2023-04-15T00:11:48.720Z,49.73
2023-04-15T00:16:56.831Z,51.01
2023-04-15T00:22:01.439Z,49.41
2023-04-15T00:27:06.972Z,47.96
2023-04-15T00:32:12.009Z,50.04
2023-04-15T00:37:19.201Z,49.93
2023-04-15T00:42:25.614Z,51.41
2023-04-15T00:47:31.923Z,50.82
2023-04-15T00:52:37.780Z,49.78
2023-04-15T00:57:43.678Z,50.50
2023-04-15T01:02:49.721Z,50.38
2023-04-15T01:07:56.804Z,50.29
2023-04-15T01:13:03.726Z,50.43
2023-04-15T01:18:10.298Z,49.85
2023-04-15T01:23:17.982Z,50.39
2023-04-15T01:28:23.363Z,51.18
2023-04-15T01:33:28.544Z,49.98
2023-04-15T01:38:53.352Z,49.84
2023-04-15T01:44:00.663Z,50.17
2023-04-15T01:49:07.329Z,50.04
2023-04-15T01:54:14.039Z,49.74
2023-04-15T01:59:20.518Z,50.35
2023-04-15T02:04:27.309Z,49.47
2023-04-15T02:09:34.518Z,49.17
2023-04-15T02:14:41.192Z,48.75
2023-04-15T02:19:48.840Z,48.90
2023-04-15T02:24:55.263Z,48.45
2023-04-15T02:30:01.792Z,49.14
2023-04-15T02:35:09.670Z,46.71
2023-04-15T02:40:16.313Z,48.14
2023-04-15T02:45:29.396Z,46.15
2023-04-15T02:50:41.668Z,45.35
2023-04-15T02:55:50.707Z,44.82
2023-04-15T03:00:57.331Z,45.30
2023-04-15T03:06:04.289Z,43.73
2023-04-15T03:11:10.985Z,45.42
2023-04-15T03:16:18.319Z,45.35
2023-04-15T03:21:25.274Z,44.13
2023-04-15T03:26:33.067Z,42.74
2023-04-15T03:31:45.345Z,43.14
2023-04-15T03:36:52.124Z,43.74
2023-04-15T03:42:00.197Z,43.13
2023-04-15T03:47:06.930Z,42.14
2023-04-15T03:52:13.358Z,41.70
2023-04-15T03:57:19.992Z,41.39
2023-04-15T04:02:26.864Z,41.77
2023-04-15T04:07:33.852Z,40.16
2023-04-15T04:12:40.949Z,39.46
2023-04-15T04:17:47.684Z,40.07
2023-04-15T04:22:54.312Z,40.68
2023-04-15T04:28:00.845Z,40.29
2023-04-15T04:33:08.495Z,39.51
2023-04-15T04:38:15.218Z,40.30
2023-04-15T04:43:21.968Z,39.46
2023-04-15T04:48:28.773Z,39.18
2023-04-15T04:53:36.457Z,38.47
2023-04-15T04:58:43.059Z,38.73
2023-04-15T05:03:49.955Z,37.95
2023-04-15T05:08:57.346Z,37.25
2023-04-15T05:14:03.795Z,37.93
2023-04-15T05:19:10.653Z,37.54
2023-04-15T05:24:17.665Z,37.54
2023-04-15T05:29:24.610Z,39.43
2023-04-15T05:34:31.750Z,37.85
2023-04-15T05:39:38.328Z,37.80
2023-04-15T05:44:44.965Z,40.69
2023-04-15T05:49:52.053Z,36.99
2023-04-15T05:54:58.961Z,37.71
2023-04-15T06:00:06.679Z,37.32
2023-04-15T06:05:21.126Z,39.38
2023-04-15T06:10:27.883Z,40.16
2023-04-15T06:15:34.639Z,42.88
2023-04-15T06:20:42.554Z,42.15
2023-04-15T06:25:49.402Z,42.73
2023-04-15T06:30:56.838Z,42.86
2023-04-15T06:36:03.618Z,41.73
2023-04-15T06:41:10.584Z,41.80
2023-04-15T06:46:17.520Z,41.39
2023-04-15T06:51:26.647Z,42.21
2023-04-15T06:56:34.453Z,42.41
2023-04-15T07:01:43.213Z,43.38
2023-04-15T07:06:49.818Z,43.16
2023-04-15T07:11:56.547Z,42.83
2023-04-15T07:17:03.989Z,43.06
2023-04-15T07:22:10.800Z,42.47
2023-04-15T07:27:18.556Z,42.51
2023-04-15T07:32:25.376Z,42.06
2023-04-15T07:37:32.167Z,43.03
2023-04-15T07:42:41.155Z,43.68
2023-04-15T07:47:48.127Z,43.22
2023-04-15T07:52:55.277Z,41.83
2023-04-15T07:58:02.070Z,43.10
2023-04-15T08:03:09.084Z,43.13
2023-04-15T08:08:16.039Z,41.88
2023-04-15T08:13:22.935Z,43.06
2023-04-15T08:18:29.545Z,42.72
2023-04-15T08:23:36.346Z,42.75
2023-04-15T08:28:44.917Z,40.94
2023-04-15T08:33:53.106Z,42.56
2023-04-15T08:38:59.695Z,43.17
2023-04-15T08:44:06.725Z,41.00
2023-04-15T08:49:39.301Z,41.37
2023-04-15T08:54:46.388Z,40.54
2023-04-15T08:59:54.810Z,40.75
2023-04-15T09:05:00.169Z,39.68
2023-04-15T09:10:07.388Z,40.47
2023-04-15T09:15:14.471Z,41.07
2023-04-15T09:20:21.694Z,40.82
2023-04-15T09:25:31.192Z,40.49
2023-04-15T09:30:39.804Z,40.84
2023-04-15T09:36:25.647Z,39.04
2023-04-15T09:41:32.216Z,38.68
2023-04-15T09:46:46.825Z,39.24
2023-04-15T09:52:06.348Z,39.23
2023-04-15T09:57:14.322Z,40.75
2023-04-15T10:02:24.795Z,40.07
2023-04-15T10:07:32.605Z,38.84
2023-04-15T10:12:42.232Z,39.46
2023-04-15T10:17:52.131Z,38.33
2023-04-15T10:22:59.048Z,38.62
2023-04-15T10:28:07.631Z,38.28
2023-04-15T10:33:15.219Z,38.62
2023-04-15T10:38:47.407Z,37.80
2023-04-15T10:44:06.127Z,37.52
2023-04-15T10:49:14.764Z,38.46
2023-04-15T10:54:29.276Z,38.23
2023-04-15T10:59:59.206Z,37.61
2023-04-15T11:05:06.263Z,37.01
2023-04-15T11:10:33.285Z,36.65
2023-04-15T11:15:42.238Z,36.69
2023-04-15T11:20:55.446Z,37.69
2023-04-15T11:26:04.435Z,37.77
2023-04-15T11:31:15.696Z,37.58
2023-04-15T11:36:27.928Z,37.33
2023-04-15T11:41:36.638Z,36.24
2023-04-15T11:46:45.529Z,36.96
2023-04-15T11:51:52.468Z,34.67
2023-04-15T11:56:57.979Z,35.66
2023-04-15T12:02:15.276Z,34.54
2023-04-15T12:07:20.560Z,35.14
2023-04-15T12:12:30.310Z,34.76
2023-04-15T12:17:51.827Z,33.40
2023-04-15T12:23:07.794Z,34.17
2023-04-15T12:28:12.690Z,32.60
2023-04-15T12:33:18.748Z,33.03
2023-04-15T12:38:23.823Z,34.08
2023-04-15T12:43:29.255Z,33.11
2023-04-15T12:48:35.663Z,33.48
2023-04-15T12:53:41.381Z,32.77
2023-04-15T12:58:46.887Z,35.12
2023-04-15T13:03:52.716Z,34.66
2023-04-15T13:08:59.071Z,33.95
2023-04-15T13:14:07.368Z,33.70
2023-04-15T13:19:12.797Z,36.77
2023-04-15T13:24:18.697Z,35.91
2023-04-15T13:29:24.272Z,34.41
2023-04-15T13:34:29.657Z,33.80
2023-04-15T13:39:35.262Z,33.00
2023-04-15T13:44:41.054Z,35.47
2023-04-15T13:49:46.610Z,33.75
2023-04-15T13:55:08.810Z,34.11
2023-04-15T14:00:19.687Z,34.11
2023-04-15T14:05:25.034Z,34.75
2023-04-15T14:10:30.437Z,33.91
2023-04-15T14:15:35.806Z,34.56
2023-04-15T14:20:41.236Z,35.52
2023-04-15T14:25:48.302Z,33.54
2023-04-15T14:30:54.445Z,33.14
2023-04-15T14:35:59.792Z,33.66
2023-04-15T14:41:06.118Z,33.70
2023-04-15T14:46:12.329Z,34.61
2023-04-15T14:51:18.137Z,33.06
2023-04-15T14:56:23.681Z,33.27
2023-04-15T15:01:30.330Z,33.54
2023-04-15T15:06:36.264Z,33.77
2023-04-15T15:11:41.893Z,34.08
2023-04-15T15:16:47.594Z,35.31
2023-04-15T15:21:53.042Z,36.45
2023-04-15T15:26:58.702Z,35.63
2023-04-15T15:32:04.244Z,35.54
2023-04-15T15:37:09.786Z,36.37
2023-04-15T15:42:15.445Z,37.44
2023-04-15T15:47:22.892Z,37.43
2023-04-15T15:52:28.737Z,37.72
2023-04-15T15:57:34.201Z,36.86
2023-04-15T16:03:05.085Z,37.18
2023-04-15T16:08:06.371Z,39.21
2023-04-15T16:13:12.014Z,39.21
2023-04-15T16:18:18.082Z,39.47
2023-04-15T16:23:24.272Z,39.65
2023-04-15T16:28:29.749Z,39.01
2023-04-15T16:33:35.396Z,40.54
2023-04-15T16:38:40.864Z,40.81
2023-04-15T16:43:46.659Z,41.70
2023-04-15T16:48:52.297Z,40.61
2023-04-15T16:53:57.760Z,41.09
2023-04-15T16:59:03.432Z,42.19
2023-04-15T17:04:09.397Z,42.40
2023-04-15T17:09:14.949Z,41.21
2023-04-15T17:14:20.397Z,40.72
2023-04-15T17:19:28.429Z,41.19
2023-04-15T17:24:46.052Z,44.14
2023-04-15T17:29:54.155Z,45.59
2023-04-15T17:35:20.663Z,46.59
2023-04-15T17:40:47.262Z,49.21
2023-04-15T17:46:14.336Z,48.56
2023-04-15T17:51:41.247Z,48.55
2023-04-15T17:57:08.119Z,48.16
2023-04-15T18:02:36.923Z,47.34
2023-04-15T18:08:04.423Z,49.17
2023-04-15T18:13:30.654Z,48.60
2023-04-15T18:18:57.121Z,47.96
2023-04-15T18:24:02.442Z,47.81
2023-04-15T18:29:08.250Z,44.31
2023-04-15T18:34:14.133Z,48.19
2023-04-15T18:39:18.944Z,48.45
2023-04-15T18:44:24.631Z,49.71
2023-04-15T18:49:30.858Z,49.76
2023-04-15T18:54:36.935Z,49.78
2023-04-15T18:59:42.308Z,50.04
2023-04-15T19:04:47.986Z,50.37
2023-04-15T19:09:53.993Z,49.12
2023-04-15T19:14:59.599Z,49.94
2023-04-15T19:20:05.571Z,49.92
2023-04-15T19:25:11.037Z,49.98
2023-04-15T19:30:16.969Z,51.06
2023-04-15T19:35:22.003Z,49.17
2023-04-15T19:40:27.409Z,50.80
2023-04-15T19:45:32.786Z,50.62
2023-04-15T19:50:38.355Z,49.51
2023-04-15T19:55:44.177Z,48.17
2023-04-15T20:00:49.487Z,52.51
2023-04-15T20:05:54.796Z,54.30
2023-04-15T20:11:01.718Z,56.31
2023-04-15T20:16:08.312Z,57.03
2023-04-15T20:21:13.715Z,56.01
2023-04-15T20:26:20.165Z,56.64
2023-04-15T20:31:25.323Z,58.58
2023-04-15T20:36:32.233Z,57.86
2023-04-15T20:41:37.772Z,57.41
2023-04-15T20:46:43.290Z,55.52
2023-04-15T20:51:49.458Z,58.05
2023-04-15T20:56:54.891Z,58.11
2023-04-15T21:02:00.256Z,56.51
2023-04-15T21:07:06.102Z,57.79
2023-04-15T21:12:12.157Z,57.39
2023-04-15T21:17:36.991Z,53.89
2023-04-15T21:22:43.082Z,50.62
2023-04-15T21:27:48.381Z,54.47
2023-04-15T21:32:53.961Z,54.09
2023-04-15T21:37:59.301Z,49.35
2023-04-15T21:43:04.778Z,47.33
2023-04-15T21:48:10.186Z,46.61
2023-04-15T21:53:15.541Z,46.63
2023-04-15T21:58:20.909Z,44.01
2023-04-15T22:03:26.371Z,45.46
2023-04-15T22:08:41.336Z,42.77
2023-04-15T22:13:52.626Z,48.94
2023-04-15T22:18:58.253Z,49.70
2023-04-15T22:24:32.237Z,49.44
2023-04-15T22:29:30.605Z,50.27
2023-04-15T22:34:36.014Z,49.60
2023-04-15T22:39:41.624Z,49.30
2023-04-15T22:44:46.678Z,50.24
2023-04-15T22:49:52.064Z,50.61
2023-04-15T22:54:57.802Z,50.44
2023-04-15T23:00:03.352Z,51.27
2023-04-15T23:05:12.446Z,51.70
2023-04-15T23:10:21.469Z,51.35
2023-04-15T23:15:26.625Z,53.70
2023-04-15T23:20:32.225Z,53.31
2023-04-15T23:25:37.794Z,54.83
2023-04-15T23:30:43.372Z,54.75
2023-04-15T23:35:48.702Z,55.77
2023-04-15T23:40:54.208Z,55.76
2023-04-15T23:45:59.574Z,55.40
2023-04-15T23:51:06.169Z,55.98
2023-04-15T23:56:11.614Z,55.83
